sensor_id;sensor_type;location;lat;lon;timestamp;P1;durP1;ratioP1;P2;durP2;ratioP2
71490;SDS011;59307;50.060;9.150;2023-04-15T00:01:37;8.60;;;3.70;;
71490;SDS011;59307;50.060;9.150;2023-04-15T00:04:02;8.10;;;3.70;;
71490;SDS011;59307;50.060;9.150;2023-04-15T00:06:28;7.80;;;3.60;;
71490;SDS011;59307;50.060;9.150;2023-04-15T00:08:53;8.37;;;3.83;;
71490;SDS011;59307;50.060;9.150;2023-04-15T00:11:19;8.55;;;3.78;;
71490;SDS011;59307;50.060;9.150;2023-04-15T00:13:44;6.97;;;3.47;;
71490;SDS011;59307;50.060;9.150;2023-04-15T00:16:10;5.30;;;3.40;;
71490;SDS011;59307;50.060;9.150;2023-04-15T00:18:36;6.27;;;3.33;;
71490;SDS011;59307;50.060;9.150;2023-04-15T00:21:01;6.65;;;3.28;;
71490;SDS011;59307;50.060;9.150;2023-04-15T00:23:27;6.10;;;3.53;;
71490;SDS011;59307;50.060;9.150;2023-04-15T00:25:52;6.67;;;3.57;;
71490;SDS011;59307;50.060;9.150;2023-04-15T00:28:17;8.37;;;3.50;;
71490;SDS011;59307;50.060;9.150;2023-04-15T00:30:42;7.00;;;3.13;;
71490;SDS011;59307;50.060;9.150;2023-04-15T00:33:08;7.20;;;3.27;;
71490;SDS011;59307;50.060;9.150;2023-04-15T00:35:33;7.50;;;3.70;;
71490;SDS011;59307;50.060;9.150;2023-04-15T00:38:00;7.47;;;3.90;;
71490;SDS011;59307;50.060;9.150;2023-04-15T00:40:25;7.10;;;3.30;;
71490;SDS011;59307;50.060;9.150;2023-04-15T00:42:51;10.30;;;3.63;;
71490;SDS011;59307;50.060;9.150;2023-04-15T00:45:17;7.43;;;3.33;;
71490;SDS011;59307;50.060;9.150;2023-04-15T00:47:42;6.80;;;3.40;;
71490;SDS011;59307;50.060;9.150;2023-04-15T00:50:08;6.30;;;3.00;;
71490;SDS011;59307;50.060;9.150;2023-04-15T00:52:33;6.80;;;3.00;;
71490;SDS011;59307;50.060;9.150;2023-04-15T00:54:59;5.57;;;3.10;;
71490;SDS011;59307;50.060;9.150;2023-04-15T00:57:24;7.00;;;3.00;;
71490;SDS011;59307;50.060;9.150;2023-04-15T00:59:50;6.50;;;3.10;;
71490;SDS011;59307;50.060;9.150;2023-04-15T01:02:16;7.13;;;3.23;;
71490;SDS011;59307;50.060;9.150;2023-04-15T01:04:41;6.63;;;3.40;;
71490;SDS011;59307;50.060;9.150;2023-04-15T01:07:07;7.10;;;3.00;;
71490;SDS011;59307;50.060;9.150;2023-04-15T01:09:33;6.83;;;3.50;;
71490;SDS011;59307;50.060;9.150;2023-04-15T01:11:58;6.07;;;3.07;;
71490;SDS011;59307;50.060;9.150;2023-04-15T01:14:24;7.27;;;3.10;;
71490;SDS011;59307;50.060;9.150;2023-04-15T01:16:49;8.30;;;3.27;;
71490;SDS011;59307;50.060;9.150;2023-04-15T01:19:16;8.65;;;3.05;;
71490;SDS011;59307;50.060;9.150;2023-04-15T01:21:42;6.45;;;3.38;;
71490;SDS011;59307;50.060;9.150;2023-04-15T01:24:07;8.33;;;3.90;;
71490;SDS011;59307;50.060;9.150;2023-04-15T01:26:33;10.63;;;3.67;;
71490;SDS011;59307;50.060;9.150;2023-04-15T01:28:58;8.73;;;4.17;;
71490;SDS011;59307;50.060;9.150;2023-04-15T01:31:24;8.10;;;3.80;;
71490;SDS011;59307;50.060;9.150;2023-04-15T01:33:49;6.17;;;3.80;;
71490;SDS011;59307;50.060;9.150;2023-04-15T01:36:15;6.60;;;3.35;;
71490;SDS011;59307;50.060;9.150;2023-04-15T01:38:40;7.40;;;4.10;;
71490;SDS011;59307;50.060;9.150;2023-04-15T01:41:05;6.37;;;3.30;;
71490;SDS011;59307;50.060;9.150;2023-04-15T01:43:32;7.97;;;3.60;;
71490;SDS011;59307;50.060;9.150;2023-04-15T01:45:57;7.03;;;3.50;;
71490;SDS011;59307;50.060;9.150;2023-04-15T01:48:22;5.77;;;3.27;;
71490;SDS011;59307;50.060;9.150;2023-04-15T01:50:48;8.73;;;4.50;;
71490;SDS011;59307;50.060;9.150;2023-04-15T01:53:13;6.47;;;3.57;;
71490;SDS011;59307;50.060;9.150;2023-04-15T01:55:39;9.85;;;4.18;;
71490;SDS011;59307;50.060;9.150;2023-04-15T01:58:05;6.97;;;3.87;;
71490;SDS011;59307;50.060;9.150;2023-04-15T02:00:30;8.47;;;4.30;;
71490;SDS011;59307;50.060;9.150;2023-04-15T02:02:56;6.95;;;3.70;;
71490;SDS011;59307;50.060;9.150;2023-04-15T02:05:21;7.70;;;3.77;;
71490;SDS011;59307;50.060;9.150;2023-04-15T02:07:47;6.95;;;3.80;;
71490;SDS011;59307;50.060;9.150;2023-04-15T02:10:12;6.20;;;3.50;;
71490;SDS011;59307;50.060;9.150;2023-04-15T02:12:38;8.33;;;3.90;;
71490;SDS011;59307;50.060;9.150;2023-04-15T02:15:03;9.03;;;3.90;;
71490;SDS011;59307;50.060;9.150;2023-04-15T02:17:29;6.88;;;3.67;;
71490;SDS011;59307;50.060;9.150;2023-04-15T02:19:54;7.77;;;4.10;;
71490;SDS011;59307;50.060;9.150;2023-04-15T02:22:20;8.30;;;3.70;;
71490;SDS011;59307;50.060;9.150;2023-04-15T02:24:45;7.50;;;3.47;;
71490;SDS011;59307;50.060;9.150;2023-04-15T02:27:14;7.83;;;3.93;;
71490;SDS011;59307;50.060;9.150;2023-04-15T02:29:40;7.07;;;3.35;;
71490;SDS011;59307;50.060;9.150;2023-04-15T02:32:05;5.97;;;3.30;;
71490;SDS011;59307;50.060;9.150;2023-04-15T02:34:30;4.77;;;2.90;;
71490;SDS011;59307;50.060;9.150;2023-04-15T02:36:55;5.30;;;3.00;;
71490;SDS011;59307;50.060;9.150;2023-04-15T02:39:21;5.68;;;3.03;;
71490;SDS011;59307;50.060;9.150;2023-04-15T02:41:46;6.67;;;3.30;;
71490;SDS011;59307;50.060;9.150;2023-04-15T02:44:15;6.30;;;3.70;;
71490;SDS011;59307;50.060;9.150;2023-04-15T02:46:42;8.43;;;3.53;;
71490;SDS011;59307;50.060;9.150;2023-04-15T02:49:08;6.90;;;3.40;;
71490;SDS011;59307;50.060;9.150;2023-04-15T02:51:33;6.47;;;3.33;;
71490;SDS011;59307;50.060;9.150;2023-04-15T02:53:58;8.03;;;4.33;;
71490;SDS011;59307;50.060;9.150;2023-04-15T02:56:23;6.50;;;3.67;;
71490;SDS011;59307;50.060;9.150;2023-04-15T02:58:48;9.77;;;4.07;;
71490;SDS011;59307;50.060;9.150;2023-04-15T03:01:14;6.20;;;3.40;;
71490;SDS011;59307;50.060;9.150;2023-04-15T03:03:39;6.80;;;3.33;;
71490;SDS011;59307;50.060;9.150;2023-04-15T03:06:05;6.13;;;3.50;;
71490;SDS011;59307;50.060;9.150;2023-04-15T03:08:30;6.57;;;3.40;;
71490;SDS011;59307;50.060;9.150;2023-04-15T03:10:57;9.73;;;3.70;;
71490;SDS011;59307;50.060;9.150;2023-04-15T03:13:24;8.07;;;3.67;;
71490;SDS011;59307;50.060;9.150;2023-04-15T03:15:49;6.17;;;3.60;;
71490;SDS011;59307;50.060;9.150;2023-04-15T03:18:14;5.80;;;3.17;;
71490;SDS011;59307;50.060;9.150;2023-04-15T03:20:40;5.80;;;3.22;;
71490;SDS011;59307;50.060;9.150;2023-04-15T03:23:05;6.43;;;3.20;;
71490;SDS011;59307;50.060;9.150;2023-04-15T03:25:31;5.10;;;3.17;;
71490;SDS011;59307;50.060;9.150;2023-04-15T03:27:56;5.67;;;3.47;;
71490;SDS011;59307;50.060;9.150;2023-04-15T03:30:21;8.20;;;4.07;;
71490;SDS011;59307;50.060;9.150;2023-04-15T03:32:46;6.77;;;3.40;;
71490;SDS011;59307;50.060;9.150;2023-04-15T03:35:11;6.63;;;3.33;;
71490;SDS011;59307;50.060;9.150;2023-04-15T03:37:36;8.40;;;3.70;;
71490;SDS011;59307;50.060;9.150;2023-04-15T03:40:02;6.97;;;3.63;;
71490;SDS011;59307;50.060;9.150;2023-04-15T03:42:27;5.90;;;3.00;;
71490;SDS011;59307;50.060;9.150;2023-04-15T03:44:52;7.23;;;3.33;;
71490;SDS011;59307;50.060;9.150;2023-04-15T03:47:17;7.87;;;3.37;;
71490;SDS011;59307;50.060;9.150;2023-04-15T03:49:43;6.73;;;3.30;;
71490;SDS011;59307;50.060;9.150;2023-04-15T03:52:08;5.50;;;3.30;;
71490;SDS011;59307;50.060;9.150;2023-04-15T03:54:33;6.63;;;3.63;;
71490;SDS011;59307;50.060;9.150;2023-04-15T03:56:58;9.03;;;3.43;;
71490;SDS011;59307;50.060;9.150;2023-04-15T03:59:23;4.90;;;2.73;;
71490;SDS011;59307;50.060;9.150;2023-04-15T04:01:48;6.70;;;3.00;;
71490;SDS011;59307;50.060;9.150;2023-04-15T04:04:14;5.68;;;3.20;;
71490;SDS011;59307;50.060;9.150;2023-04-15T04:06:40;6.93;;;3.53;;
71490;SDS011;59307;50.060;9.150;2023-04-15T04:09:05;7.67;;;3.97;;
71490;SDS011;59307;50.060;9.150;2023-04-15T04:11:30;8.03;;;3.80;;
71490;SDS011;59307;50.060;9.150;2023-04-15T04:13:56;7.07;;;3.67;;
71490;SDS011;59307;50.060;9.150;2023-04-15T04:16:22;7.27;;;3.67;;
71490;SDS011;59307;50.060;9.150;2023-04-15T04:18:47;6.73;;;3.27;;
71490;SDS011;59307;50.060;9.150;2023-04-15T04:21:12;8.57;;;4.07;;
71490;SDS011;59307;50.060;9.150;2023-04-15T04:23:37;6.17;;;3.40;;
71490;SDS011;59307;50.060;9.150;2023-04-15T04:26:02;9.27;;;3.77;;
71490;SDS011;59307;50.060;9.150;2023-04-15T04:28:28;7.47;;;3.63;;
71490;SDS011;59307;50.060;9.150;2023-04-15T04:30:53;8.97;;;3.10;;
71490;SDS011;59307;50.060;9.150;2023-04-15T04:33:18;7.43;;;2.90;;
71490;SDS011;59307;50.060;9.150;2023-04-15T04:35:43;5.40;;;3.10;;
71490;SDS011;59307;50.060;9.150;2023-04-15T04:38:08;5.33;;;3.23;;
71490;SDS011;59307;50.060;9.150;2023-04-15T04:40:34;6.30;;;2.80;;
71490;SDS011;59307;50.060;9.150;2023-04-15T04:42:59;6.80;;;3.50;;
71490;SDS011;59307;50.060;9.150;2023-04-15T04:45:24;5.73;;;3.00;;
71490;SDS011;59307;50.060;9.150;2023-04-15T04:47:50;6.03;;;3.20;;
71490;SDS011;59307;50.060;9.150;2023-04-15T04:50:15;8.57;;;3.40;;
71490;SDS011;59307;50.060;9.150;2023-04-15T04:52:40;7.40;;;3.23;;
71490;SDS011;59307;50.060;9.150;2023-04-15T04:55:06;6.00;;;3.00;;
71490;SDS011;59307;50.060;9.150;2023-04-15T04:57:32;5.70;;;2.90;;
71490;SDS011;59307;50.060;9.150;2023-04-15T04:59:59;4.93;;;2.90;;
71490;SDS011;59307;50.060;9.150;2023-04-15T05:02:25;5.53;;;2.70;;
71490;SDS011;59307;50.060;9.150;2023-04-15T05:04:51;5.80;;;2.83;;
71490;SDS011;59307;50.060;9.150;2023-04-15T05:07:18;5.00;;;2.80;;
71490;SDS011;59307;50.060;9.150;2023-04-15T05:09:44;4.93;;;2.83;;
71490;SDS011;59307;50.060;9.150;2023-04-15T05:12:10;5.25;;;2.80;;
71490;SDS011;59307;50.060;9.150;2023-04-15T05:14:39;6.93;;;3.53;;
71490;SDS011;59307;50.060;9.150;2023-04-15T05:17:04;8.88;;;3.00;;
71490;SDS011;59307;50.060;9.150;2023-04-15T05:19:29;5.43;;;2.50;;
71490;SDS011;59307;50.060;9.150;2023-04-15T05:21:54;5.80;;;2.80;;
71490;SDS011;59307;50.060;9.150;2023-04-15T05:24:20;6.00;;;2.57;;
71490;SDS011;59307;50.060;9.150;2023-04-15T05:26:45;6.20;;;2.73;;
71490;SDS011;59307;50.060;9.150;2023-04-15T05:29:11;6.07;;;3.35;;
71490;SDS011;59307;50.060;9.150;2023-04-15T05:31:36;5.97;;;3.00;;
71490;SDS011;59307;50.060;9.150;2023-04-15T05:34:01;6.83;;;3.20;;
71490;SDS011;59307;50.060;9.150;2023-04-15T05:36:27;8.43;;;2.73;;
71490;SDS011;59307;50.060;9.150;2023-04-15T05:38:52;7.00;;;3.67;;
71490;SDS011;59307;50.060;9.150;2023-04-15T05:41:18;6.67;;;3.47;;
71490;SDS011;59307;50.060;9.150;2023-04-15T05:43:43;6.00;;;3.60;;
71490;SDS011;59307;50.060;9.150;2023-04-15T05:46:08;8.07;;;3.87;;
71490;SDS011;59307;50.060;9.150;2023-04-15T05:48:33;9.73;;;4.07;;
71490;SDS011;59307;50.060;9.150;2023-04-15T05:50:59;8.80;;;3.63;;
71490;SDS011;59307;50.060;9.150;2023-04-15T05:53:24;6.43;;;3.03;;
71490;SDS011;59307;50.060;9.150;2023-04-15T05:55:49;6.03;;;3.50;;
71490;SDS011;59307;50.060;9.150;2023-04-15T05:58:15;6.57;;;3.57;;
71490;SDS011;59307;50.060;9.150;2023-04-15T06:00:40;7.27;;;3.60;;
71490;SDS011;59307;50.060;9.150;2023-04-15T06:03:06;7.90;;;3.40;;
71490;SDS011;59307;50.060;9.150;2023-04-15T06:05:31;8.90;;;3.95;;
71490;SDS011;59307;50.060;9.150;2023-04-15T06:07:57;7.10;;;3.27;;
71490;SDS011;59307;50.060;9.150;2023-04-15T06:10:22;5.80;;;3.60;;
71490;SDS011;59307;50.060;9.150;2023-04-15T06:12:47;6.13;;;3.10;;
71490;SDS011;59307;50.060;9.150;2023-04-15T06:15:12;5.67;;;3.23;;
71490;SDS011;59307;50.060;9.150;2023-04-15T06:17:37;7.83;;;3.30;;
71490;SDS011;59307;50.060;9.150;2023-04-15T06:20:03;6.47;;;3.20;;
71490;SDS011;59307;50.060;9.150;2023-04-15T06:22:28;5.53;;;3.43;;
71490;SDS011;59307;50.060;9.150;2023-04-15T06:24:53;5.40;;;2.90;;
71490;SDS011;59307;50.060;9.150;2023-04-15T06:27:19;6.47;;;3.27;;
71490;SDS011;59307;50.060;9.150;2023-04-15T06:29:44;7.17;;;3.40;;
71490;SDS011;59307;50.060;9.150;2023-04-15T06:32:10;5.73;;;3.17;;
71490;SDS011;59307;50.060;9.150;2023-04-15T06:34:35;5.25;;;3.05;;
71490;SDS011;59307;50.060;9.150;2023-04-15T06:37:01;5.90;;;3.37;;
71490;SDS011;59307;50.060;9.150;2023-04-15T06:39:26;8.60;;;4.30;;
71490;SDS011;59307;50.060;9.150;2023-04-15T06:41:51;7.07;;;3.77;;
71490;SDS011;59307;50.060;9.150;2023-04-15T06:44:17;8.37;;;3.90;;
71490;SDS011;59307;50.060;9.150;2023-04-15T06:46:42;5.80;;;3.58;;
71490;SDS011;59307;50.060;9.150;2023-04-15T06:49:07;9.00;;;4.10;;
71490;SDS011;59307;50.060;9.150;2023-04-15T06:51:33;9.53;;;4.07;;
71490;SDS011;59307;50.060;9.150;2023-04-15T06:53:59;8.35;;;4.00;;
71490;SDS011;59307;50.060;9.150;2023-04-15T06:56:24;6.37;;;3.80;;
71490;SDS011;59307;50.060;9.150;2023-04-15T06:58:49;6.80;;;3.50;;
71490;SDS011;59307;50.060;9.150;2023-04-15T07:01:14;5.70;;;3.37;;
71490;SDS011;59307;50.060;9.150;2023-04-15T07:03:39;8.30;;;3.53;;
71490;SDS011;59307;50.060;9.150;2023-04-15T07:06:05;9.88;;;3.70;;
71490;SDS011;59307;50.060;9.150;2023-04-15T07:08:32;6.93;;;3.83;;
71490;SDS011;59307;50.060;9.150;2023-04-15T07:10:57;9.25;;;4.30;;
71490;SDS011;59307;50.060;9.150;2023-04-15T07:13:22;11.20;;;5.10;;
71490;SDS011;59307;50.060;9.150;2023-04-15T07:15:48;13.33;;;4.37;;
71490;SDS011;59307;50.060;9.150;2023-04-15T07:18:13;7.47;;;3.97;;
71490;SDS011;59307;50.060;9.150;2023-04-15T07:20:38;10.73;;;4.20;;
71490;SDS011;59307;50.060;9.150;2023-04-15T07:23:04;9.00;;;4.55;;
71490;SDS011;59307;50.060;9.150;2023-04-15T07:25:29;10.33;;;4.70;;
71490;SDS011;59307;50.060;9.150;2023-04-15T07:27:54;8.47;;;5.17;;
71490;SDS011;59307;50.060;9.150;2023-04-15T07:30:19;8.87;;;4.97;;
71490;SDS011;59307;50.060;9.150;2023-04-15T07:32:44;7.70;;;4.50;;
71490;SDS011;59307;50.060;9.150;2023-04-15T07:35:10;8.20;;;4.90;;
71490;SDS011;59307;50.060;9.150;2023-04-15T07:37:35;10.37;;;4.90;;
71490;SDS011;59307;50.060;9.150;2023-04-15T07:40:01;11.90;;;5.10;;
71490;SDS011;59307;50.060;9.150;2023-04-15T07:42:28;9.23;;;5.50;;
71490;SDS011;59307;50.060;9.150;2023-04-15T07:44:53;10.37;;;5.17;;
71490;SDS011;59307;50.060;9.150;2023-04-15T07:47:19;11.73;;;5.30;;
71490;SDS011;59307;50.060;9.150;2023-04-15T07:49:44;9.00;;;5.18;;
71490;SDS011;59307;50.060;9.150;2023-04-15T07:52:09;7.93;;;4.87;;
71490;SDS011;59307;50.060;9.150;2023-04-15T07:54:35;8.53;;;5.33;;
71490;SDS011;59307;50.060;9.150;2023-04-15T07:57:00;9.37;;;5.40;;
71490;SDS011;59307;50.060;9.150;2023-04-15T07:59:25;10.87;;;5.27;;
71490;SDS011;59307;50.060;9.150;2023-04-15T08:01:53;9.60;;;5.35;;
71490;SDS011;59307;50.060;9.150;2023-04-15T08:04:19;9.93;;;5.27;;
71490;SDS011;59307;50.060;9.150;2023-04-15T08:06:44;12.20;;;5.43;;
71490;SDS011;59307;50.060;9.150;2023-04-15T08:09:09;8.57;;;5.10;;
71490;SDS011;59307;50.060;9.150;2023-04-15T08:11:35;9.37;;;4.83;;
71490;SDS011;59307;50.060;9.150;2023-04-15T08:14:00;10.63;;;5.47;;
71490;SDS011;59307;50.060;9.150;2023-04-15T08:16:25;12.05;;;5.55;;
71490;SDS011;59307;50.060;9.150;2023-04-15T08:18:54;8.63;;;4.60;;
71490;SDS011;59307;50.060;9.150;2023-04-15T08:21:19;8.75;;;4.70;;
71490;SDS011;59307;50.060;9.150;2023-04-15T08:23:45;7.87;;;4.50;;
71490;SDS011;59307;50.060;9.150;2023-04-15T08:26:11;8.52;;;4.70;;
71490;SDS011;59307;50.060;9.150;2023-04-15T08:28:37;8.87;;;4.17;;
71490;SDS011;59307;50.060;9.150;2023-04-15T08:31:02;9.65;;;4.30;;
71490;SDS011;59307;50.060;9.150;2023-04-15T08:33:27;6.27;;;4.23;;
71490;SDS011;59307;50.060;9.150;2023-04-15T08:35:53;8.73;;;3.77;;
71490;SDS011;59307;50.060;9.150;2023-04-15T08:38:18;8.47;;;3.57;;
71490;SDS011;59307;50.060;9.150;2023-04-15T08:40:43;5.43;;;3.30;;
71490;SDS011;59307;50.060;9.150;2023-04-15T08:43:10;7.10;;;3.55;;
71490;SDS011;59307;50.060;9.150;2023-04-15T08:45:37;6.55;;;3.42;;
71490;SDS011;59307;50.060;9.150;2023-04-15T08:48:02;6.97;;;3.50;;
71490;SDS011;59307;50.060;9.150;2023-04-15T08:50:28;6.63;;;3.43;;
71490;SDS011;59307;50.060;9.150;2023-04-15T08:52:55;6.97;;;4.15;;
71490;SDS011;59307;50.060;9.150;2023-04-15T08:55:22;12.35;;;4.30;;
71490;SDS011;59307;50.060;9.150;2023-04-15T08:57:48;6.97;;;3.80;;
71490;SDS011;59307;50.060;9.150;2023-04-15T09:00:13;8.83;;;4.63;;
71490;SDS011;59307;50.060;9.150;2023-04-15T09:02:38;8.67;;;4.30;;
71490;SDS011;59307;50.060;9.150;2023-04-15T09:05:05;8.07;;;4.30;;
71490;SDS011;59307;50.060;9.150;2023-04-15T09:07:32;7.63;;;4.03;;
71490;SDS011;59307;50.060;9.150;2023-04-15T09:09:57;10.90;;;4.95;;
71490;SDS011;59307;50.060;9.150;2023-04-15T09:12:22;12.03;;;4.40;;
71490;SDS011;59307;50.060;9.150;2023-04-15T09:14:47;10.50;;;3.97;;
71490;SDS011;59307;50.060;9.150;2023-04-15T09:17:13;10.03;;;4.77;;
71490;SDS011;59307;50.060;9.150;2023-04-15T09:19:42;6.85;;;3.80;;
71490;SDS011;59307;50.060;9.150;2023-04-15T09:22:07;8.03;;;4.27;;
71490;SDS011;59307;50.060;9.150;2023-04-15T09:24:34;6.83;;;3.60;;
71490;SDS011;59307;50.060;9.150;2023-04-15T09:27:01;7.82;;;3.88;;
71490;SDS011;59307;50.060;9.150;2023-04-15T09:29:27;7.30;;;3.60;;
71490;SDS011;59307;50.060;9.150;2023-04-15T09:31:52;8.38;;;3.60;;
71490;SDS011;59307;50.060;9.150;2023-04-15T09:34:18;6.80;;;3.90;;
71490;SDS011;59307;50.060;9.150;2023-04-15T09:39:11;7.57;;;3.97;;
71490;SDS011;59307;50.060;9.150;2023-04-15T09:41:37;7.40;;;4.47;;
71490;SDS011;59307;50.060;9.150;2023-04-15T09:44:03;13.70;;;5.50;;
71490;SDS011;59307;50.060;9.150;2023-04-15T09:46:40;16.30;;;4.82;;
71490;SDS011;59307;50.060;9.150;2023-04-15T09:49:07;9.53;;;4.87;;
71490;SDS011;59307;50.060;9.150;2023-04-15T09:51:35;10.85;;;4.68;;
71490;SDS011;59307;50.060;9.150;2023-04-15T09:54:01;8.43;;;4.13;;
71490;SDS011;59307;50.060;9.150;2023-04-15T09:56:36;10.47;;;4.90;;
71490;SDS011;59307;50.060;9.150;2023-04-15T09:59:02;10.20;;;5.05;;
71490;SDS011;59307;50.060;9.150;2023-04-15T10:01:28;8.70;;;4.50;;
71490;SDS011;59307;50.060;9.150;2023-04-15T10:03:53;10.00;;;4.30;;
71490;SDS011;59307;50.060;9.150;2023-04-15T10:06:21;8.60;;;4.30;;
71490;SDS011;59307;50.060;9.150;2023-04-15T10:08:47;7.55;;;4.53;;
71490;SDS011;59307;50.060;9.150;2023-04-15T10:11:12;7.60;;;4.18;;
71490;SDS011;59307;50.060;9.150;2023-04-15T10:13:38;7.00;;;3.83;;
71490;SDS011;59307;50.060;9.150;2023-04-15T10:16:11;7.20;;;4.53;;
71490;SDS011;59307;50.060;9.150;2023-04-15T10:18:41;9.80;;;4.10;;
71490;SDS011;59307;50.060;9.150;2023-04-15T10:21:07;7.50;;;4.00;;
71490;SDS011;59307;50.060;9.150;2023-04-15T10:23:32;7.67;;;4.20;;
71490;SDS011;59307;50.060;9.150;2023-04-15T10:25:58;7.97;;;4.23;;
71490;SDS011;59307;50.060;9.150;2023-04-15T10:28:23;7.88;;;4.07;;
71490;SDS011;59307;50.060;9.150;2023-04-15T10:30:50;6.88;;;4.30;;
71490;SDS011;59307;50.060;9.150;2023-04-15T10:33:17;7.37;;;3.70;;
71490;SDS011;59307;50.060;9.150;2023-04-15T10:35:44;8.75;;;4.15;;
71490;SDS011;59307;50.060;9.150;2023-04-15T10:40:54;8.10;;;3.92;;
71490;SDS011;59307;50.060;9.150;2023-04-15T10:43:35;5.68;;;3.30;;
71490;SDS011;59307;50.060;9.150;2023-04-15T10:46:01;7.90;;;3.90;;
71490;SDS011;59307;50.060;9.150;2023-04-15T10:48:28;6.13;;;3.45;;
71490;SDS011;59307;50.060;9.150;2023-04-15T10:50:55;8.47;;;2.97;;
71490;SDS011;59307;50.060;9.150;2023-04-15T10:53:29;5.07;;;2.50;;
71490;SDS011;59307;50.060;9.150;2023-04-15T10:55:56;4.40;;;2.08;;
71490;SDS011;59307;50.060;9.150;2023-04-15T10:58:24;5.80;;;1.90;;
71490;SDS011;59307;50.060;9.150;2023-04-15T11:00:50;4.30;;;1.70;;
71490;SDS011;59307;50.060;9.150;2023-04-15T11:03:37;3.22;;;1.70;;
71490;SDS011;59307;50.060;9.150;2023-04-15T11:06:04;3.97;;;1.80;;
71490;SDS011;59307;50.060;9.150;2023-04-15T11:11:13;4.87;;;2.30;;
71490;SDS011;59307;50.060;9.150;2023-04-15T11:13:46;4.82;;;2.35;;
71490;SDS011;59307;50.060;9.150;2023-04-15T11:16:12;6.87;;;2.63;;
71490;SDS011;59307;50.060;9.150;2023-04-15T11:18:37;5.10;;;2.70;;
71490;SDS011;59307;50.060;9.150;2023-04-15T11:21:03;6.10;;;2.80;;
71490;SDS011;59307;50.060;9.150;2023-04-15T11:23:39;6.33;;;2.90;;
71490;SDS011;59307;50.060;9.150;2023-04-15T11:26:08;5.95;;;3.00;;
71490;SDS011;59307;50.060;9.150;2023-04-15T11:28:35;6.85;;;3.20;;
71490;SDS011;59307;50.060;9.150;2023-04-15T11:31:05;6.77;;;3.47;;
71490;SDS011;59307;50.060;9.150;2023-04-15T11:33:30;8.27;;;3.30;;
71490;SDS011;59307;50.060;9.150;2023-04-15T11:35:55;5.80;;;3.17;;
71490;SDS011;59307;50.060;9.150;2023-04-15T11:38:21;6.80;;;3.60;;
71490;SDS011;59307;50.060;9.150;2023-04-15T11:40:46;7.20;;;3.55;;
71490;SDS011;59307;50.060;9.150;2023-04-15T11:43:16;7.70;;;3.70;;
71490;SDS011;59307;50.060;9.150;2023-04-15T11:45:51;7.03;;;3.70;;
71490;SDS011;59307;50.060;9.150;2023-04-15T11:48:17;6.80;;;3.67;;
71490;SDS011;59307;50.060;9.150;2023-04-15T11:50:42;7.35;;;3.72;;
71490;SDS011;59307;50.060;9.150;2023-04-15T11:53:08;7.80;;;3.00;;
71490;SDS011;59307;50.060;9.150;2023-04-15T11:55:47;6.30;;;3.40;;
71490;SDS011;59307;50.060;9.150;2023-04-15T11:58:16;6.90;;;3.70;;
71490;SDS011;59307;50.060;9.150;2023-04-15T12:00:46;5.10;;;3.22;;
71490;SDS011;59307;50.060;9.150;2023-04-15T12:03:22;5.88;;;3.15;;
71490;SDS011;59307;50.060;9.150;2023-04-15T12:11:18;5.20;;;2.90;;
71490;SDS011;59307;50.060;9.150;2023-04-15T12:13:47;6.20;;;3.30;;
71490;SDS011;59307;50.060;9.150;2023-04-15T12:16:19;7.00;;;3.08;;
71490;SDS011;59307;50.060;9.150;2023-04-15T12:18:51;6.22;;;3.10;;
71490;SDS011;59307;50.060;9.150;2023-04-15T12:21:27;5.63;;;3.17;;
71490;SDS011;59307;50.060;9.150;2023-04-15T12:23:56;6.87;;;3.20;;
71490;SDS011;59307;50.060;9.150;2023-04-15T12:26:33;5.22;;;2.92;;
71490;SDS011;59307;50.060;9.150;2023-04-15T12:29:02;5.13;;;2.70;;
71490;SDS011;59307;50.060;9.150;2023-04-15T12:31:28;6.13;;;2.97;;
71490;SDS011;59307;50.060;9.150;2023-04-15T12:33:54;5.17;;;2.87;;
71490;SDS011;59307;50.060;9.150;2023-04-15T12:36:19;5.03;;;2.88;;
71490;SDS011;59307;50.060;9.150;2023-04-15T12:38:44;6.40;;;2.77;;
71490;SDS011;59307;50.060;9.150;2023-04-15T12:41:09;4.77;;;2.43;;
71490;SDS011;59307;50.060;9.150;2023-04-15T12:43:35;7.37;;;3.00;;
71490;SDS011;59307;50.060;9.150;2023-04-15T12:46:00;6.07;;;2.90;;
71490;SDS011;59307;50.060;9.150;2023-04-15T12:48:26;6.27;;;3.00;;
71490;SDS011;59307;50.060;9.150;2023-04-15T12:50:51;8.47;;;3.20;;
71490;SDS011;59307;50.060;9.150;2023-04-15T12:53:16;5.67;;;3.00;;
71490;SDS011;59307;50.060;9.150;2023-04-15T12:55:42;5.65;;;2.90;;
71490;SDS011;59307;50.060;9.150;2023-04-15T12:58:07;6.27;;;3.10;;
71490;SDS011;59307;50.060;9.150;2023-04-15T13:00:33;5.37;;;3.00;;
71490;SDS011;59307;50.060;9.150;2023-04-15T13:02:58;6.90;;;3.40;;
71490;SDS011;59307;50.060;9.150;2023-04-15T13:05:23;5.47;;;3.00;;
71490;SDS011;59307;50.060;9.150;2023-04-15T13:07:49;5.60;;;3.20;;
71490;SDS011;59307;50.060;9.150;2023-04-15T13:10:14;5.93;;;2.97;;
71490;SDS011;59307;50.060;9.150;2023-04-15T13:12:39;5.30;;;2.87;;
71490;SDS011;59307;50.060;9.150;2023-04-15T13:15:05;4.68;;;2.70;;
71490;SDS011;59307;50.060;9.150;2023-04-15T13:17:31;5.83;;;2.70;;
71490;SDS011;59307;50.060;9.150;2023-04-15T13:19:56;4.17;;;2.23;;
71490;SDS011;59307;50.060;9.150;2023-04-15T13:22:21;5.17;;;2.60;;
71490;SDS011;59307;50.060;9.150;2023-04-15T13:24:46;3.93;;;2.23;;
71490;SDS011;59307;50.060;9.150;2023-04-15T13:27:12;4.80;;;2.50;;
71490;SDS011;59307;50.060;9.150;2023-04-15T13:29:37;3.95;;;2.00;;
71490;SDS011;59307;50.060;9.150;2023-04-15T13:32:04;4.67;;;2.43;;
71490;SDS011;59307;50.060;9.150;2023-04-15T13:34:29;4.53;;;2.23;;
71490;SDS011;59307;50.060;9.150;2023-04-15T13:36:54;4.27;;;2.30;;
71490;SDS011;59307;50.060;9.150;2023-04-15T13:39:20;4.22;;;2.25;;
71490;SDS011;59307;50.060;9.150;2023-04-15T13:41:45;5.97;;;2.60;;
71490;SDS011;59307;50.060;9.150;2023-04-15T13:44:12;5.88;;;3.08;;
71490;SDS011;59307;50.060;9.150;2023-04-15T13:46:37;4.30;;;2.37;;
71490;SDS011;59307;50.060;9.150;2023-04-15T13:49:04;5.77;;;2.70;;
71490;SDS011;59307;50.060;9.150;2023-04-15T13:51:30;5.60;;;2.75;;
71490;SDS011;59307;50.060;9.150;2023-04-15T13:53:55;5.17;;;2.70;;
71490;SDS011;59307;50.060;9.150;2023-04-15T13:56:22;6.27;;;2.73;;
71490;SDS011;59307;50.060;9.150;2023-04-15T13:58:47;5.13;;;2.47;;
71490;SDS011;59307;50.060;9.150;2023-04-15T14:01:12;4.00;;;2.10;;
71490;SDS011;59307;50.060;9.150;2023-04-15T14:03:37;4.03;;;2.30;;
71490;SDS011;59307;50.060;9.150;2023-04-15T14:06:03;4.53;;;2.50;;
71490;SDS011;59307;50.060;9.150;2023-04-15T14:08:29;4.30;;;2.70;;
71490;SDS011;59307;50.060;9.150;2023-04-15T14:10:54;5.20;;;2.40;;
71490;SDS011;59307;50.060;9.150;2023-04-15T14:13:19;5.73;;;3.10;;
71490;SDS011;59307;50.060;9.150;2023-04-15T14:15:46;4.57;;;2.47;;
71490;SDS011;59307;50.060;9.150;2023-04-15T14:18:11;4.63;;;2.75;;
71490;SDS011;59307;50.060;9.150;2023-04-15T14:20:36;6.83;;;2.90;;
71490;SDS011;59307;50.060;9.150;2023-04-15T14:23:01;7.07;;;3.23;;
71490;SDS011;59307;50.060;9.150;2023-04-15T14:25:26;6.43;;;3.37;;
71490;SDS011;59307;50.060;9.150;2023-04-15T14:27:52;6.23;;;3.20;;
71490;SDS011;59307;50.060;9.150;2023-04-15T14:30:17;6.83;;;3.00;;
71490;SDS011;59307;50.060;9.150;2023-04-15T14:32:42;5.47;;;3.23;;
71490;SDS011;59307;50.060;9.150;2023-04-15T14:35:07;5.93;;;3.33;;
71490;SDS011;59307;50.060;9.150;2023-04-15T14:37:33;9.57;;;3.80;;
71490;SDS011;59307;50.060;9.150;2023-04-15T14:39:58;7.63;;;3.90;;
71490;SDS011;59307;50.060;9.150;2023-04-15T14:42:23;6.40;;;3.10;;
71490;SDS011;59307;50.060;9.150;2023-04-15T14:44:49;6.13;;;3.30;;
71490;SDS011;59307;50.060;9.150;2023-04-15T14:47:14;6.37;;;3.07;;
71490;SDS011;59307;50.060;9.150;2023-04-15T14:49:40;7.67;;;3.60;;
71490;SDS011;59307;50.060;9.150;2023-04-15T14:52:05;6.50;;;3.17;;
71490;SDS011;59307;50.060;9.150;2023-04-15T14:54:30;6.30;;;3.60;;